sensor_id;sensor_type;location;lat;lon;timestamp;pressure;altitude;pressure_sealevel;temperature;humidity
61086;BME280;46967;48.876;2.136;2023-05-16T00:00:14;101899.16;;;34.98;16.12
61086;BME280;46967;48.876;2.136;2023-05-16T00:02:39;101892.44;;;34.71;16.40
61086;BME280;46967;48.876;2.136;2023-05-16T00:05:05;101887.63;;;34.90;16.16
61086;BME280;46967;48.876;2.136;2023-05-16T00:07:45;101896.19;;;34.93;16.39
61086;BME280;46967;48.876;2.136;2023-05-16T00:10:11;101890.00;;;34.84;16.35
61086;BME280;46967;48.876;2.136;2023-05-16T00:12:37;101893.38;;;34.87;16.28
61086;BME280;46967;48.876;2.136;2023-05-16T00:15:05;101890.44;;;34.96;16.01
61086;BME280;46967;48.876;2.136;2023-05-16T00:17:32;101882.34;;;34.96;16.08
61086;BME280;46967;48.876;2.136;2023-05-16T00:19:59;101898.25;;;34.83;16.31
61086;BME280;46967;48.876;2.136;2023-05-16T00:22:25;101897.53;;;34.89;16.05
61086;BME280;46967;48.876;2.136;2023-05-16T00:24:51;101894.31;;;34.94;16.22
61086;BME280;46967;48.876;2.136;2023-05-16T00:27:16;101894.13;;;34.95;16.19
61086;BME280;46967;48.876;2.136;2023-05-16T00:29:41;101889.81;;;34.86;16.18
61086;BME280;46967;48.876;2.136;2023-05-16T00:32:07;101894.75;;;34.82;15.99
61086;BME280;46967;48.876;2.136;2023-05-16T00:34:34;101885.31;;;34.55;16.44
61086;BME280;46967;48.876;2.136;2023-05-16T00:36:59;101888.84;;;34.56;16.30
61086;BME280;46967;48.876;2.136;2023-05-16T00:39:25;101894.75;;;34.82;16.09
61086;BME280;46967;48.876;2.136;2023-05-16T00:41:50;101896.78;;;34.49;16.45
61086;BME280;46967;48.876;2.136;2023-05-16T00:44:16;101890.88;;;34.54;16.09
61086;BME280;46967;48.876;2.136;2023-05-16T00:46:41;101895.84;;;34.65;16.12
61086;BME280;46967;48.876;2.136;2023-05-16T00:49:07;101893.22;;;34.57;16.37
61086;BME280;46967;48.876;2.136;2023-05-16T00:51:33;101899.00;;;34.77;16.27
61086;BME280;46967;48.876;2.136;2023-05-16T00:53:59;101892.22;;;34.58;16.16
61086;BME280;46967;48.876;2.136;2023-05-16T00:56:24;101895.66;;;34.66;16.27
61086;BME280;46967;48.876;2.136;2023-05-16T00:58:50;101888.47;;;34.36;16.17
61086;BME280;46967;48.876;2.136;2023-05-16T01:01:15;101894.22;;;34.56;16.18
61086;BME280;46967;48.876;2.136;2023-05-16T01:03:41;101903.00;;;34.50;16.16
61086;BME280;46967;48.876;2.136;2023-05-16T01:06:10;101897.91;;;34.63;15.99
61086;BME280;46967;48.876;2.136;2023-05-16T01:08:36;101895.63;;;34.75;16.09
61086;BME280;46967;48.876;2.136;2023-05-16T01:11:08;101897.50;;;34.97;16.01
61086;BME280;46967;48.876;2.136;2023-05-16T01:16:09;101893.19;;;34.34;16.12
61086;BME280;46967;48.876;2.136;2023-05-16T01:21:43;101897.97;;;34.46;16.19
61086;BME280;46967;48.876;2.136;2023-05-16T01:27:03;101895.09;;;34.56;16.37
61086;BME280;46967;48.876;2.136;2023-05-16T01:29:29;101898.66;;;34.72;15.71
61086;BME280;46967;48.876;2.136;2023-05-16T01:31:54;101897.19;;;34.69;16.14
61086;BME280;46967;48.876;2.136;2023-05-16T01:34:20;101901.41;;;34.63;15.80
61086;BME280;46967;48.876;2.136;2023-05-16T01:36:59;101902.03;;;34.74;15.72
61086;BME280;46967;48.876;2.136;2023-05-16T01:42:09;101906.06;;;34.78;15.80
61086;BME280;46967;48.876;2.136;2023-05-16T01:44:42;101903.53;;;34.76;15.86
61086;BME280;46967;48.876;2.136;2023-05-16T01:47:13;101899.53;;;34.72;15.83
61086;BME280;46967;48.876;2.136;2023-05-16T01:52:37;101908.72;;;34.23;16.16
61086;BME280;46967;48.876;2.136;2023-05-16T01:55:09;101903.13;;;34.33;16.11
61086;BME280;46967;48.876;2.136;2023-05-16T01:57:36;101907.44;;;34.42;15.80
61086;BME280;46967;48.876;2.136;2023-05-16T02:00:03;101903.34;;;34.23;16.01
61086;BME280;46967;48.876;2.136;2023-05-16T02:02:30;101902.84;;;34.20;16.04
61086;BME280;46967;48.876;2.136;2023-05-16T02:04:55;101909.22;;;34.19;16.38
61086;BME280;46967;48.876;2.136;2023-05-16T02:07:21;101899.50;;;34.09;16.40
61086;BME280;46967;48.876;2.136;2023-05-16T02:09:46;101902.50;;;34.15;16.07
61086;BME280;46967;48.876;2.136;2023-05-16T02:12:11;101905.88;;;34.25;15.84
61086;BME280;46967;48.876;2.136;2023-05-16T02:14:37;101914.06;;;34.32;16.03
61086;BME280;46967;48.876;2.136;2023-05-16T02:17:02;101910.28;;;34.09;16.24
61086;BME280;46967;48.876;2.136;2023-05-16T02:19:28;101911.91;;;34.27;15.93
61086;BME280;46967;48.876;2.136;2023-05-16T02:21:53;101917.28;;;34.27;15.76
61086;BME280;46967;48.876;2.136;2023-05-16T02:24:18;101908.56;;;34.25;15.95
61086;BME280;46967;48.876;2.136;2023-05-16T02:26:44;101904.69;;;34.51;15.87
61086;BME280;46967;48.876;2.136;2023-05-16T02:29:09;101911.00;;;34.66;15.66
61086;BME280;46967;48.876;2.136;2023-05-16T02:31:35;101914.81;;;34.72;15.94
61086;BME280;46967;48.876;2.136;2023-05-16T02:34:01;101920.09;;;34.65;15.24
61086;BME280;46967;48.876;2.136;2023-05-16T02:36:26;101925.38;;;34.58;15.59
61086;BME280;46967;48.876;2.136;2023-05-16T02:38:52;101922.13;;;33.92;16.18
61086;BME280;46967;48.876;2.136;2023-05-16T02:41:18;101922.59;;;33.96;16.06
61086;BME280;46967;48.876;2.136;2023-05-16T02:43:43;101919.81;;;34.20;15.94
61086;BME280;46967;48.876;2.136;2023-05-16T02:46:29;101924.72;;;34.17;15.95
61086;BME280;46967;48.876;2.136;2023-05-16T02:48:55;101924.13;;;33.98;16.36
61086;BME280;46967;48.876;2.136;2023-05-16T02:51:22;101927.72;;;33.66;16.50
61086;BME280;46967;48.876;2.136;2023-05-16T02:53:48;101922.47;;;33.89;16.11
61086;BME280;46967;48.876;2.136;2023-05-16T02:56:14;101931.19;;;33.99;16.15
61086;BME280;46967;48.876;2.136;2023-05-16T02:58:40;101923.81;;;33.93;16.36
61086;BME280;46967;48.876;2.136;2023-05-16T03:01:06;101923.28;;;33.89;16.11
61086;BME280;46967;48.876;2.136;2023-05-16T03:03:31;101926.31;;;33.94;16.00
61086;BME280;46967;48.876;2.136;2023-05-16T03:05:59;101922.22;;;34.07;16.05
61086;BME280;46967;48.876;2.136;2023-05-16T03:08:25;101917.88;;;34.06;16.16
61086;BME280;46967;48.876;2.136;2023-05-16T03:10:50;101922.94;;;34.01;16.18
61086;BME280;46967;48.876;2.136;2023-05-16T03:13:15;101926.00;;;33.89;16.11
61086;BME280;46967;48.876;2.136;2023-05-16T03:15:41;101926.50;;;33.93;16.27
61086;BME280;46967;48.876;2.136;2023-05-16T03:18:06;101940.53;;;33.39;16.87
61086;BME280;46967;48.876;2.136;2023-05-16T03:20:31;101941.19;;;33.66;16.66
61086;BME280;46967;48.876;2.136;2023-05-16T03:22:57;101947.75;;;33.63;16.41
61086;BME280;46967;48.876;2.136;2023-05-16T03:25:22;101947.22;;;33.51;16.37
61086;BME280;46967;48.876;2.136;2023-05-16T03:27:47;101946.28;;;33.28;16.62
61086;BME280;46967;48.876;2.136;2023-05-16T03:30:13;101938.72;;;33.23;16.76
61086;BME280;46967;48.876;2.136;2023-05-16T03:32:38;101953.66;;;33.17;16.76
61086;BME280;46967;48.876;2.136;2023-05-16T03:35:04;101949.63;;;33.30;16.80
61086;BME280;46967;48.876;2.136;2023-05-16T03:37:29;101952.97;;;33.24;16.53
61086;BME280;46967;48.876;2.136;2023-05-16T03:39:56;101956.81;;;33.13;16.94
61086;BME280;46967;48.876;2.136;2023-05-16T03:42:21;101959.81;;;33.10;16.84
61086;BME280;46967;48.876;2.136;2023-05-16T03:44:46;101965.03;;;32.44;17.56
61086;BME280;46967;48.876;2.136;2023-05-16T03:47:11;101973.94;;;33.03;16.81
61086;BME280;46967;48.876;2.136;2023-05-16T03:49:37;101967.22;;;33.16;16.84
61086;BME280;46967;48.876;2.136;2023-05-16T03:52:03;101968.28;;;33.39;16.44
61086;BME280;46967;48.876;2.136;2023-05-16T03:54:29;101967.59;;;33.21;16.96
61086;BME280;46967;48.876;2.136;2023-05-16T03:56:54;101971.78;;;33.40;16.80
61086;BME280;46967;48.876;2.136;2023-05-16T03:59:20;101961.19;;;33.38;16.47
61086;BME280;46967;48.876;2.136;2023-05-16T04:01:45;101969.13;;;33.24;16.55
61086;BME280;46967;48.876;2.136;2023-05-16T04:04:11;101973.16;;;33.28;16.55
61086;BME280;46967;48.876;2.136;2023-05-16T04:06:36;101973.47;;;33.41;16.64
61086;BME280;46967;48.876;2.136;2023-05-16T04:09:01;101972.81;;;33.39;16.77
61086;BME280;46967;48.876;2.136;2023-05-16T04:11:27;101983.06;;;33.35;16.68
61086;BME280;46967;48.876;2.136;2023-05-16T04:13:52;101976.00;;;33.51;16.25
61086;BME280;46967;48.876;2.136;2023-05-16T04:16:20;101985.09;;;33.58;16.58
61086;BME280;46967;48.876;2.136;2023-05-16T04:18:46;101986.56;;;33.69;15.84
61086;BME280;46967;48.876;2.136;2023-05-16T04:21:11;101984.75;;;33.61;16.56
61086;BME280;46967;48.876;2.136;2023-05-16T04:23:42;101986.59;;;33.52;16.34
61086;BME280;46967;48.876;2.136;2023-05-16T04:26:08;101990.97;;;33.29;16.68
61086;BME280;46967;48.876;2.136;2023-05-16T04:28:33;101987.94;;;33.56;16.38
61086;BME280;46967;48.876;2.136;2023-05-16T04:30:59;101995.16;;;33.64;16.08
61086;BME280;46967;48.876;2.136;2023-05-16T04:33:24;101986.94;;;33.74;16.19
61086;BME280;46967;48.876;2.136;2023-05-16T04:35:49;101989.47;;;33.75;16.13
61086;BME280;46967;48.876;2.136;2023-05-16T04:38:15;102000.56;;;33.64;16.19
61086;BME280;46967;48.876;2.136;2023-05-16T04:40:40;101996.19;;;33.71;16.42
61086;BME280;46967;48.876;2.136;2023-05-16T04:43:08;101997.84;;;33.48;16.45
61086;BME280;46967;48.876;2.136;2023-05-16T04:45:34;101999.53;;;33.57;16.54
61086;BME280;46967;48.876;2.136;2023-05-16T04:48:00;102001.56;;;33.63;16.46
61086;BME280;46967;48.876;2.136;2023-05-16T04:50:25;102003.41;;;33.79;16.31
61086;BME280;46967;48.876;2.136;2023-05-16T04:52:51;102005.25;;;33.62;16.51
61086;BME280;46967;48.876;2.136;2023-05-16T04:55:16;102008.59;;;33.89;16.32
61086;BME280;46967;48.876;2.136;2023-05-16T04:57:42;102008.91;;;33.94;16.37
61086;BME280;46967;48.876;2.136;2023-05-16T05:00:07;102011.13;;;33.82;16.24
61086;BME280;46967;48.876;2.136;2023-05-16T05:02:36;102012.31;;;33.96;16.33
61086;BME280;46967;48.876;2.136;2023-05-16T05:05:03;102007.88;;;34.03;16.14
61086;BME280;46967;48.876;2.136;2023-05-16T05:07:28;102019.41;;;33.72;16.47
61086;BME280;46967;48.876;2.136;2023-05-16T05:09:54;102019.22;;;33.74;16.34
61086;BME280;46967;48.876;2.136;2023-05-16T05:12:20;102014.66;;;33.91;16.42
61086;BME280;46967;48.876;2.136;2023-05-16T05:14:46;102017.00;;;33.86;16.19
61086;BME280;46967;48.876;2.136;2023-05-16T05:17:11;102019.84;;;34.09;16.18
61086;BME280;46967;48.876;2.136;2023-05-16T05:19:37;102013.16;;;33.72;16.51
61086;BME280;46967;48.876;2.136;2023-05-16T05:22:02;102020.22;;;33.56;16.46
61086;BME280;46967;48.876;2.136;2023-05-16T05:24:27;102025.78;;;33.71;16.55
61086;BME280;46967;48.876;2.136;2023-05-16T05:26:53;102025.44;;;33.74;16.41
61086;BME280;46967;48.876;2.136;2023-05-16T05:29:18;102022.38;;;33.94;16.35
61086;BME280;46967;48.876;2.136;2023-05-16T05:31:43;102017.66;;;33.14;17.30
61086;BME280;46967;48.876;2.136;2023-05-16T05:34:09;102025.25;;;33.43;16.98
61086;BME280;46967;48.876;2.136;2023-05-16T05:36:34;102021.31;;;34.11;16.40
61086;BME280;46967;48.876;2.136;2023-05-16T05:38:59;102019.34;;;33.97;16.37
61086;BME280;46967;48.876;2.136;2023-05-16T05:41:24;102027.28;;;33.49;17.05
61086;BME280;46967;48.876;2.136;2023-05-16T05:43:51;102028.53;;;34.19;16.36
61086;BME280;46967;48.876;2.136;2023-05-16T05:46:16;102021.81;;;34.32;16.23
61086;BME280;46967;48.876;2.136;2023-05-16T05:48:41;102028.59;;;34.03;16.26
61086;BME280;46967;48.876;2.136;2023-05-16T05:51:07;102025.38;;;34.07;16.57
61086;BME280;46967;48.876;2.136;2023-05-16T05:53:33;102026.09;;;33.76;16.83
61086;BME280;46967;48.876;2.136;2023-05-16T05:55:58;102028.88;;;34.24;16.16
61086;BME280;46967;48.876;2.136;2023-05-16T05:58:24;102030.44;;;33.94;16.59
61086;BME280;46967;48.876;2.136;2023-05-16T06:00:49;102037.63;;;34.35;16.28
61086;BME280;46967;48.876;2.136;2023-05-16T06:03:15;102041.00;;;34.20;16.28
61086;BME280;46967;48.876;2.136;2023-05-16T06:05:41;102039.06;;;33.81;16.62
61086;BME280;46967;48.876;2.136;2023-05-16T06:08:06;102038.88;;;33.58;16.77
61086;BME280;46967;48.876;2.136;2023-05-16T06:10:31;102046.44;;;33.30;17.11
61086;BME280;46967;48.876;2.136;2023-05-16T06:12:57;102043.41;;;33.41;16.98
61086;BME280;46967;48.876;2.136;2023-05-16T06:15:22;102043.09;;;33.85;16.81
61086;BME280;46967;48.876;2.136;2023-05-16T06:17:47;102051.13;;;33.69;16.95
61086;BME280;46967;48.876;2.136;2023-05-16T06:20:13;102044.84;;;34.42;16.16
61086;BME280;46967;48.876;2.136;2023-05-16T06:22:38;102042.28;;;34.49;15.93
61086;BME280;46967;48.876;2.136;2023-05-16T06:25:04;102047.22;;;34.29;16.52
61086;BME280;46967;48.876;2.136;2023-05-16T06:27:29;102049.13;;;34.04;16.46
61086;BME280;46967;48.876;2.136;2023-05-16T06:29:55;102057.78;;;34.47;16.26
61086;BME280;46967;48.876;2.136;2023-05-16T06:32:20;102057.44;;;34.42;16.27
61086;BME280;46967;48.876;2.136;2023-05-16T06:34:47;102053.38;;;33.82;16.54
61086;BME280;46967;48.876;2.136;2023-05-16T06:37:12;102056.78;;;34.40;16.13
61086;BME280;46967;48.876;2.136;2023-05-16T06:39:37;102063.22;;;34.22;16.18
61086;BME280;46967;48.876;2.136;2023-05-16T06:42:03;102067.09;;;34.20;16.24
61086;BME280;46967;48.876;2.136;2023-05-16T06:44:28;102069.66;;;34.69;16.15
61086;BME280;46967;48.876;2.136;2023-05-16T06:46:54;102066.47;;;33.93;16.41
61086;BME280;46967;48.876;2.136;2023-05-16T06:49:19;102066.41;;;34.82;15.96
61086;BME280;46967;48.876;2.136;2023-05-16T06:51:44;102075.03;;;35.09;15.96
61086;BME280;46967;48.876;2.136;2023-05-16T06:54:10;102066.38;;;34.90;15.84
61086;BME280;46967;48.876;2.136;2023-05-16T06:56:35;102067.81;;;33.81;16.86
61086;BME280;46967;48.876;2.136;2023-05-16T06:59:01;102069.84;;;35.30;15.64
61086;BME280;46967;48.876;2.136;2023-05-16T07:01:26;102069.41;;;34.87;15.65
61086;BME280;46967;48.876;2.136;2023-05-16T07:03:52;102067.41;;;35.12;16.01
61086;BME280;46967;48.876;2.136;2023-05-16T07:06:18;102077.06;;;33.86;16.67
61086;BME280;46967;48.876;2.136;2023-05-16T07:08:43;102074.63;;;34.89;15.84
61086;BME280;46967;48.876;2.136;2023-05-16T07:11:09;102078.72;;;34.28;16.39
61086;BME280;46967;48.876;2.136;2023-05-16T07:13:36;102078.63;;;35.32;15.83
61086;BME280;46967;48.876;2.136;2023-05-16T07:16:01;102079.16;;;35.19;15.88
61086;BME280;46967;48.876;2.136;2023-05-16T07:18:26;102079.97;;;35.74;15.34
61086;BME280;46967;48.876;2.136;2023-05-16T07:20:51;102082.31;;;36.31;15.12
61086;BME280;46967;48.876;2.136;2023-05-16T07:23:17;102076.91;;;36.60;15.10
61086;BME280;46967;48.876;2.136;2023-05-16T07:25:42;102088.59;;;35.93;14.94
61086;BME280;46967;48.876;2.136;2023-05-16T07:28:08;102098.75;;;35.45;15.29
61086;BME280;46967;48.876;2.136;2023-05-16T07:30:33;102088.56;;;35.32;15.03
61086;BME280;46967;48.876;2.136;2023-05-16T07:32:59;102087.41;;;35.72;14.91
61086;BME280;46967;48.876;2.136;2023-05-16T07:35:24;102097.19;;;34.96;15.10
61086;BME280;46967;48.876;2.136;2023-05-16T07:37:49;102085.78;;;34.86;15.31
61086;BME280;46967;48.876;2.136;2023-05-16T07:40:15;102086.41;;;35.50;15.18
61086;BME280;46967;48.876;2.136;2023-05-16T07:42:42;102085.63;;;35.65;14.75
61086;BME280;46967;48.876;2.136;2023-05-16T07:45:08;102091.72;;;33.84;15.81
61086;BME280;46967;48.876;2.136;2023-05-16T07:47:33;102084.00;;;35.01;15.02
61086;BME280;46967;48.876;2.136;2023-05-16T07:49:59;102084.94;;;35.16;14.65
61086;BME280;46967;48.876;2.136;2023-05-16T07:52:25;102073.53;;;35.06;14.95
61086;BME280;46967;48.876;2.136;2023-05-16T07:54:50;102088.38;;;35.33;14.95
61086;BME280;46967;48.876;2.136;2023-05-16T07:57:16;102090.97;;;35.50;14.69
61086;BME280;46967;48.876;2.136;2023-05-16T07:59:42;102076.16;;;35.69;14.56
61086;BME280;46967;48.876;2.136;2023-05-16T08:02:07;102088.56;;;36.76;13.90
61086;BME280;46967;48.876;2.136;2023-05-16T08:04:33;102089.28;;;34.86;14.60
61086;BME280;46967;48.876;2.136;2023-05-16T08:06:58;102085.88;;;36.31;13.88
61086;BME280;46967;48.876;2.136;2023-05-16T08:09:23;102084.72;;;34.95;14.60
61086;BME280;46967;48.876;2.136;2023-05-16T08:11:49;102081.38;;;36.68;13.79
61086;BME280;46967;48.876;2.136;2023-05-16T08:14:14;102085.31;;;36.36;13.48
61086;BME280;46967;48.876;2.136;2023-05-16T08:16:40;102089.38;;;36.76;13.20
61086;BME280;46967;48.876;2.136;2023-05-16T08:19:06;102089.03;;;35.82;14.18
61086;BME280;46967;48.876;2.136;2023-05-16T08:21:31;102094.38;;;35.12;14.28
61086;BME280;46967;48.876;2.136;2023-05-16T08:23:57;102088.00;;;36.66;13.55
61086;BME280;46967;48.876;2.136;2023-05-16T08:26:22;102084.66;;;36.34;13.47
61086;BME280;46967;48.876;2.136;2023-05-16T08:28:47;102091.34;;;36.53;13.29
61086;BME280;46967;48.876;2.136;2023-05-16T08:31:13;102093.13;;;37.48;12.89
61086;BME280;46967;48.876;2.136;2023-05-16T08:33:39;102091.69;;;36.94;12.82
61086;BME280;46967;48.876;2.136;2023-05-16T08:36:04;102092.53;;;36.20;12.89
61086;BME280;46967;48.876;2.136;2023-05-16T08:38:30;102085.69;;;35.33;13.80
61086;BME280;46967;48.876;2.136;2023-05-16T08:40:55;102091.00;;;36.41;13.32
61086;BME280;46967;48.876;2.136;2023-05-16T08:43:21;102089.28;;;36.10;13.58
61086;BME280;46967;48.876;2.136;2023-05-16T08:45:46;102084.84;;;36.77;13.20
61086;BME280;46967;48.876;2.136;2023-05-16T08:48:13;102076.28;;;38.03;12.56
61086;BME280;46967;48.876;2.136;2023-05-16T08:50:39;102083.34;;;36.30;13.36
61086;BME280;46967;48.876;2.136;2023-05-16T08:53:08;102073.81;;;35.66;13.15
61086;BME280;46967;48.876;2.136;2023-05-16T08:55:34;102082.00;;;35.72;13.43
61086;BME280;46967;48.876;2.136;2023-05-16T08:58:00;102076.94;;;35.78;13.36
61086;BME280;46967;48.876;2.136;2023-05-16T09:00:26;102085.28;;;35.13;13.64
61086;BME280;46967;48.876;2.136;2023-05-16T09:02:52;102087.97;;;35.91;13.16
61086;BME280;46967;48.876;2.136;2023-05-16T09:05:17;102077.53;;;36.03;13.23
61086;BME280;46967;48.876;2.136;2023-05-16T09:07:44;102078.69;;;35.16;13.65
61086;BME280;46967;48.876;2.136;2023-05-16T09:10:10;102080.66;;;36.59;12.54
61086;BME280;46967;48.876;2.136;2023-05-16T09:12:36;102082.50;;;36.74;12.50
61086;BME280;46967;48.876;2.136;2023-05-16T09:15:03;102078.78;;;36.30;12.70
61086;BME280;46967;48.876;2.136;2023-05-16T09:17:42;102088.63;;;36.97;12.32
61086;BME280;46967;48.876;2.136;2023-05-16T09:22:34;102081.31;;;37.78;12.11
61086;BME280;46967;48.876;2.136;2023-05-16T09:24:59;102084.25;;;36.22;12.28
61086;BME280;46967;48.876;2.136;2023-05-16T09:27:25;102086.41;;;36.41;12.29
61086;BME280;46967;48.876;2.136;2023-05-16T09:29:50;102073.09;;;36.55;12.66
61086;BME280;46967;48.876;2.136;2023-05-16T09:32:16;102090.13;;;37.65;11.71
61086;BME280;46967;48.876;2.136;2023-05-16T09:34:47;102088.94;;;37.09;11.88
61086;BME280;46967;48.876;2.136;2023-05-16T09:37:22;102091.84;;;37.08;12.33
61086;BME280;46967;48.876;2.136;2023-05-16T09:39:52;102083.56;;;35.67;12.92
61086;BME280;46967;48.876;2.136;2023-05-16T09:42:18;102089.47;;;36.68;12.35
61086;BME280;46967;48.876;2.136;2023-05-16T09:44:53;102086.72;;;35.94;13.01
61086;BME280;46967;48.876;2.136;2023-05-16T09:47:20;102093.19;;;36.22;12.59
61086;BME280;46967;48.876;2.136;2023-05-16T09:49:50;102073.38;;;38.39;12.26
61086;BME280;46967;48.876;2.136;2023-05-16T09:52:16;102078.22;;;37.38;11.92
61086;BME280;46967;48.876;2.136;2023-05-16T09:54:41;102082.00;;;37.65;11.43
61086;BME280;46967;48.876;2.136;2023-05-16T09:57:07;102079.16;;;38.23;11.83
61086;BME280;46967;48.876;2.136;2023-05-16T09:59:37;102085.88;;;37.56;12.30
61086;BME280;46967;48.876;2.136;2023-05-16T10:02:02;102075.00;;;37.70;12.27
61086;BME280;46967;48.876;2.136;2023-05-16T10:04:29;102079.84;;;38.80;11.07
61086;BME280;46967;48.876;2.136;2023-05-16T10:06:55;102088.59;;;37.77;11.73
61086;BME280;46967;48.876;2.136;2023-05-16T10:09:21;102095.97;;;37.40;11.74
61086;BME280;46967;48.876;2.136;2023-05-16T10:11:47;102080.31;;;37.85;11.55
61086;BME280;46967;48.876;2.136;2023-05-16T10:14:16;102083.03;;;38.49;11.34
61086;BME280;46967;48.876;2.136;2023-05-16T10:16:43;102085.16;;;37.90;11.89
61086;BME280;46967;48.876;2.136;2023-05-16T10:19:10;102074.44;;;38.93;11.95
61086;BME280;46967;48.876;2.136;2023-05-16T10:21:37;102063.34;;;37.27;12.33
61086;BME280;46967;48.876;2.136;2023-05-16T10:24:06;102075.09;;;38.12;11.91
61086;BME280;46967;48.876;2.136;2023-05-16T10:26:35;102068.69;;;39.17;10.88
61086;BME280;46967;48.876;2.136;2023-05-16T10:29:00;102068.13;;;38.31;11.23
61086;BME280;46967;48.876;2.136;2023-05-16T10:31:27;102072.34;;;38.89;10.70
61086;BME280;46967;48.876;2.136;2023-05-16T10:33:55;102078.06;;;39.14;10.43
61086;BME280;46967;48.876;2.136;2023-05-16T10:36:21;102063.19;;;38.90;10.86
61086;BME280;46967;48.876;2.136;2023-05-16T10:38:47;102073.94;;;39.52;10.86
61086;BME280;46967;48.876;2.136;2023-05-16T10:41:13;102070.69;;;40.48;10.63
61086;BME280;46967;48.876;2.136;2023-05-16T10:43:38;102065.81;;;38.63;11.00
61086;BME280;46967;48.876;2.136;2023-05-16T10:46:08;102072.75;;;38.02;11.29
61086;BME280;46967;48.876;2.136;2023-05-16T10:48:35;102073.72;;;39.26;11.15
61086;BME280;46967;48.876;2.136;2023-05-16T10:51:02;102068.28;;;39.93;10.54
61086;BME280;46967;48.876;2.136;2023-05-16T10:53:29;102077.50;;;40.06;10.37
61086;BME280;46967;48.876;2.136;2023-05-16T11:01:19;102057.03;;;40.62;10.42
61086;BME280;46967;48.876;2.136;2023-05-16T11:19:36;102071.19;;;38.56;11.37
61086;BME280;46967;48.876;2.136;2023-05-16T11:27:24;102063.63;;;40.79;10.09
61086;BME280;46967;48.876;2.136;2023-05-16T11:29:50;102066.34;;;41.50;10.13
61086;BME280;46967;48.876;2.136;2023-05-16T11:32:18;102060.28;;;41.16;10.16
61086;BME280;46967;48.876;2.136;2023-05-16T11:34:45;102063.03;;;41.66;9.54
61086;BME280;46967;48.876;2.136;2023-05-16T11:37:11;102060.84;;;41.31;9.62
61086;BME280;46967;48.876;2.136;2023-05-16T11:39:37;102060.09;;;40.79;9.78
61086;BME280;46967;48.876;2.136;2023-05-16T11:42:02;102057.91;;;41.26;10.38
61086;BME280;46967;48.876;2.136;2023-05-16T11:44:28;102057.66;;;39.52;10.37
61086;BME280;46967;48.876;2.136;2023-05-16T11:46:53;102064.22;;;40.36;10.58
61086;BME280;46967;48.876;2.136;2023-05-16T11:49:19;102066.66;;;40.64;10.23
61086;BME280;46967;48.876;2.136;2023-05-16T11:51:44;102053.28;;;39.37;10.54
61086;BME280;46967;48.876;2.136;2023-05-16T11:54:11;102058.44;;;40.71;9.83
61086;BME280;46967;48.876;2.136;2023-05-16T11:56:38;102060.28;;;41.16;9.51
61086;BME280;46967;48.876;2.136;2023-05-16T11:59:05;102060.44;;;40.96;9.52
61086;BME280;46967;48.876;2.136;2023-05-16T12:01:35;102064.19;;;40.56;9.94
61086;BME280;46967;48.876;2.136;2023-05-16T12:04:06;102056.78;;;40.70;9.66
61086;BME280;46967;48.876;2.136;2023-05-16T12:06:32;102049.50;;;41.02;9.83
61086;BME280;46967;48.876;2.136;2023-05-16T12:08:57;102048.94;;;41.51;10.44
61086;BME280;46967;48.876;2.136;2023-05-16T12:11:23;102046.47;;;41.68;9.91
61086;BME280;46967;48.876;2.136;2023-05-16T12:13:48;102048.81;;;38.13;11.09
61086;BME280;46967;48.876;2.136;2023-05-16T12:16:14;102045.47;;;37.76;11.22
61086;BME280;46967;48.876;2.136;2023-05-16T12:18:41;102043.09;;;40.45;10.49
61086;BME280;46967;48.876;2.136;2023-05-16T12:21:06;102047.03;;;41.26;10.43
61086;BME280;46967;48.876;2.136;2023-05-16T12:23:32;102039.50;;;39.59;10.14
61086;BME280;46967;48.876;2.136;2023-05-16T12:25:58;102043.47;;;39.63;10.55
61086;BME280;46967;48.876;2.136;2023-05-16T12:28:30;102045.03;;;40.24;9.67
61086;BME280;46967;48.876;2.136;2023-05-16T12:30:57;102054.66;;;40.20;10.28
61086;BME280;46967;48.876;2.136;2023-05-16T12:33:23;102050.19;;;40.84;9.47
61086;BME280;46967;48.876;2.136;2023-05-16T12:35:48;102037.19;;;41.25;9.52
61086;BME280;46967;48.876;2.136;2023-05-16T12:38:15;102031.84;;;41.62;9.26
61086;BME280;46967;48.876;2.136;2023-05-16T12:40:42;102029.88;;;41.94;8.85
61086;BME280;46967;48.876;2.136;2023-05-16T12:43:21;102025.38;;;42.56;8.74
61086;BME280;46967;48.876;2.136;2023-05-16T12:45:54;102025.91;;;40.96;9.46
61086;BME280;46967;48.876;2.136;2023-05-16T12:48:21;102024.50;;;41.88;9.15
61086;BME280;46967;48.876;2.136;2023-05-16T12:50:47;102021.69;;;42.92;8.97
61086;BME280;46967;48.876;2.136;2023-05-16T12:53:13;102029.34;;;41.42;9.33
61086;BME280;46967;48.876;2.136;2023-05-16T12:55:39;102026.25;;;41.82;8.94
61086;BME280;46967;48.876;2.136;2023-05-16T12:58:04;102024.78;;;41.36;9.24
61086;BME280;46967;48.876;2.136;2023-05-16T13:00:30;102024.69;;;40.40;9.26
61086;BME280;46967;48.876;2.136;2023-05-16T13:02:58;102029.63;;;41.27;8.57
61086;BME280;46967;48.876;2.136;2023-05-16T13:05:23;102020.19;;;41.80;8.10
61086;BME280;46967;48.876;2.136;2023-05-16T13:07:49;102025.41;;;42.00;8.58
61086;BME280;46967;48.876;2.136;2023-05-16T13:10:17;102025.97;;;40.76;9.63
61086;BME280;46967;48.876;2.136;2023-05-16T13:12:43;102025.28;;;41.70;9.63
61086;BME280;46967;48.876;2.136;2023-05-16T13:15:10;102032.75;;;40.15;10.28
61086;BME280;46967;48.876;2.136;2023-05-16T13:17:41;102040.91;;;39.95;9.70
61086;BME280;46967;48.876;2.136;2023-05-16T13:20:08;102040.47;;;40.18;9.76
61086;BME280;46967;48.876;2.136;2023-05-16T13:22:36;102024.03;;;40.51;9.01
61086;BME280;46967;48.876;2.136;2023-05-16T13:25:02;102030.78;;;40.42;9.30
61086;BME280;46967;48.876;2.136;2023-05-16T13:27:28;102027.91;;;41.83;8.75